createdAt,value
2019-05-29T00:00:29.067Z,12.70
2019-05-29T00:02:58.480Z,12.65
2019-05-29T00:05:27.774Z,12.67
2019-05-29T00:07:57.384Z,12.68
2019-05-29T00:10:26.561Z,12.65
2019-05-29T00:12:55.956Z,12.65
2019-05-29T00:15:25.473Z,12.64
2019-05-29T00:17:54.895Z,12.61
2019-05-29T00:20:24.274Z,12.52
2019-05-29T00:22:53.983Z,12.54
2019-05-29T00:25:23.383Z,12.51
2019-05-29T00:27:52.905Z,12.49
2019-05-29T00:30:22.304Z,12.44
2019-05-29T00:32:51.585Z,12.36
2019-05-29T00:35:21.104Z,12.34
2019-05-29T00:37:50.305Z,12.34
2019-05-29T00:40:20.218Z,12.34
2019-05-29T00:42:49.423Z,12.34
2019-05-29T00:45:18.829Z,12.30
2019-05-29T00:47:48.227Z,12.34
2019-05-29T00:50:18.147Z,12.34
2019-05-29T00:52:47.535Z,12.36
2019-05-29T00:55:17.063Z,12.40
2019-05-29T00:57:46.559Z,12.37
2019-05-29T01:00:17.363Z,12.33
2019-05-29T01:02:47.382Z,12.32
2019-05-29T01:05:18.075Z,12.26
2019-05-29T01:07:47.704Z,12.32
2019-05-29T01:10:17.170Z,12.23
2019-05-29T01:12:46.518Z,12.26
2019-05-29T01:15:17.402Z,12.24
2019-05-29T01:17:46.870Z,12.22
2019-05-29T01:20:16.489Z,12.20
2019-05-29T01:22:45.983Z,12.25
2019-05-29T01:25:16.504Z,12.26
2019-05-29T01:27:46.214Z,12.16
2019-05-29T01:30:17.219Z,12.20
2019-05-29T01:32:46.886Z,12.14
2019-05-29T01:35:16.388Z,12.13
2019-05-29T01:37:45.866Z,12.13
2019-05-29T01:40:19.936Z,12.12
2019-05-29T01:42:49.789Z,12.04
2019-05-29T01:45:19.465Z,12.08
2019-05-29T01:47:48.897Z,12.05
2019-05-29T01:50:19.377Z,12.11
2019-05-29T01:52:49.135Z,12.17
2019-05-29T01:55:19.746Z,12.21
2019-05-29T01:57:49.276Z,12.22
2019-05-29T02:00:20.131Z,12.21
2019-05-29T02:02:49.621Z,12.15
2019-05-29T02:05:20.023Z,12.15
2019-05-29T02:07:49.523Z,12.09
2019-05-29T02:10:20.258Z,12.13
2019-05-29T02:12:49.294Z,12.06
2019-05-29T02:15:25.967Z,12.10
2019-05-29T02:17:49.714Z,12.04
2019-05-29T02:20:21.277Z,12.02
2019-05-29T02:22:50.654Z,12.03
2019-05-29T02:25:22.401Z,11.99
2019-05-29T02:27:51.614Z,12.02
2019-05-29T02:30:23.634Z,12.04
2019-05-29T02:32:53.547Z,12.05
2019-05-29T02:35:24.619Z,12.02
2019-05-29T02:37:54.035Z,12.03
2019-05-29T02:40:25.618Z,12.08
2019-05-29T02:42:54.226Z,12.04
2019-05-29T02:45:26.260Z,11.99
2019-05-29T02:47:54.515Z,12.00
2019-05-29T02:50:24.192Z,12.00
2019-05-29T02:52:55.356Z,12.02
2019-05-29T02:55:24.788Z,12.03
2019-05-29T02:57:55.148Z,11.95
2019-05-29T03:00:43.796Z,11.98
2019-05-29T03:03:13.314Z,11.96
2019-05-29T03:05:43.155Z,11.94
2019-05-29T03:08:12.554Z,12.00
2019-05-29T03:10:41.959Z,12.03
2019-05-29T03:13:11.154Z,11.98
2019-05-29T03:15:40.555Z,11.98
2019-05-29T03:18:10.062Z,12.00
2019-05-29T03:20:39.559Z,11.99
2019-05-29T03:23:08.976Z,11.93
2019-05-29T03:25:38.474Z,11.89
2019-05-29T03:28:07.554Z,11.94
2019-05-29T03:30:44.945Z,11.97
2019-05-29T03:33:07.904Z,11.97
2019-05-29T03:35:46.134Z,12.00
2019-05-29T03:38:08.547Z,12.02
2019-05-29T03:40:38.686Z,11.89
2019-05-29T03:43:08.895Z,11.93
2019-05-29T03:45:38.295Z,11.87
2019-05-29T03:48:07.598Z,11.97
2019-05-29T03:50:38.180Z,12.02
2019-05-29T03:53:07.637Z,12.05
2019-05-29T03:55:37.928Z,12.06
2019-05-29T03:58:07.356Z,12.06
2019-05-29T04:00:45.464Z,12.02
2019-05-29T04:03:07.697Z,11.98
2019-05-29T04:05:38.028Z,12.00
2019-05-29T04:08:07.513Z,11.90
2019-05-29T04:10:39.732Z,11.80
2019-05-29T04:13:09.196Z,11.92
2019-05-29T04:15:40.221Z,11.97
2019-05-29T04:18:09.812Z,12.06
2019-05-29T04:20:39.190Z,11.94
2019-05-29T04:23:09.155Z,11.97
2019-05-29T04:25:42.480Z,12.01
2019-05-29T04:28:14.295Z,12.04
2019-05-29T04:30:45.133Z,12.05
2019-05-29T04:33:14.317Z,12.08
2019-05-29T04:35:43.726Z,12.10
2019-05-29T04:38:12.835Z,12.10
2019-05-29T04:40:42.205Z,12.11
2019-05-29T04:43:11.512Z,12.15
2019-05-29T04:45:40.934Z,12.14
2019-05-29T04:48:10.013Z,12.23
2019-05-29T04:50:40.598Z,12.25
2019-05-29T04:53:10.454Z,12.13
2019-05-29T04:55:39.459Z,12.18
2019-05-29T04:58:08.614Z,12.19
2019-05-29T05:00:39.255Z,12.20
2019-05-29T05:03:08.800Z,12.14
2019-05-29T05:05:38.024Z,12.10
2019-05-29T05:08:07.272Z,12.17
2019-05-29T05:10:41.359Z,12.21
2019-05-29T05:13:10.907Z,12.33
2019-05-29T05:15:40.417Z,12.48
2019-05-29T05:18:09.871Z,12.55
2019-05-29T05:20:40.367Z,12.68
2019-05-29T05:23:09.994Z,12.74
2019-05-29T05:25:40.861Z,12.78
2019-05-29T05:28:10.434Z,12.72
2019-05-29T05:30:40.807Z,12.75
2019-05-29T05:33:10.403Z,12.76
2019-05-29T05:35:40.736Z,12.76
2019-05-29T05:38:10.557Z,12.77
2019-05-29T05:40:42.700Z,12.76
2019-05-29T05:43:23.144Z,12.82
2019-05-29T05:45:42.243Z,12.79
2019-05-29T05:48:11.432Z,12.86
2019-05-29T05:50:41.512Z,12.82
2019-05-29T05:53:10.657Z,12.80
2019-05-29T05:55:40.055Z,12.48
2019-05-29T05:58:09.461Z,12.50
2019-05-29T06:00:39.911Z,12.59
2019-05-29T06:03:09.256Z,12.68
2019-05-29T06:05:38.735Z,12.74
2019-05-29T06:08:08.074Z,12.60
2019-05-29T06:10:38.207Z,12.62
2019-05-29T06:13:07.794Z,12.62
2019-05-29T06:15:37.115Z,12.61
2019-05-29T06:18:20.644Z,12.57
2019-05-29T06:20:38.898Z,12.52
2019-05-29T06:23:08.474Z,12.58
2019-05-29T06:25:39.955Z,12.63
2019-05-29T06:28:08.919Z,12.74
2019-05-29T06:30:40.503Z,12.83
2019-05-29T06:33:09.355Z,12.93
2019-05-29T06:35:39.619Z,12.99
2019-05-29T06:38:09.395Z,12.97
2019-05-29T06:40:44.023Z,13.02
2019-05-29T06:43:24.596Z,13.12
2019-05-29T06:45:54.595Z,13.15
2019-05-29T06:48:41.559Z,13.11
2019-05-29T06:50:57.639Z,12.97
2019-05-29T06:53:27.335Z,12.85
2019-05-29T06:55:57.948Z,12.77
2019-05-29T06:58:27.571Z,12.90
2019-05-29T07:00:56.950Z,13.04
2019-05-29T07:03:26.356Z,13.11
2019-05-29T07:05:55.660Z,13.02
2019-05-29T07:08:38.152Z,13.10
2019-05-29T07:10:55.798Z,13.13
2019-05-29T07:13:25.110Z,13.19
2019-05-29T07:15:54.596Z,13.20
2019-05-29T07:18:23.955Z,13.28
2019-05-29T07:20:53.194Z,13.28
2019-05-29T07:23:22.373Z,13.26
2019-05-29T07:25:51.677Z,13.36
2019-05-29T07:28:21.112Z,13.31
2019-05-29T07:31:00.508Z,13.33
2019-05-29T07:33:21.413Z,13.44
2019-05-29T07:35:50.713Z,13.46
2019-05-29T07:38:20.133Z,13.45
2019-05-29T07:40:50.165Z,13.44
2019-05-29T07:43:19.663Z,13.31
2019-05-29T07:45:48.838Z,13.17
2019-05-29T07:48:18.238Z,13.05
2019-05-29T07:50:48.460Z,12.86
2019-05-29T07:53:18.380Z,12.93
2019-05-29T07:55:48.874Z,12.91
2019-05-29T07:58:18.768Z,13.13
2019-05-29T08:01:09.270Z,13.11
2019-05-29T08:03:19.363Z,13.16
2019-05-29T08:05:51.434Z,13.58
2019-05-29T08:08:19.495Z,13.91
2019-05-29T08:10:49.744Z,14.03
2019-05-29T08:13:19.336Z,14.05
2019-05-29T08:15:58.482Z,13.99
2019-05-29T08:18:19.537Z,14.09
2019-05-29T08:20:48.855Z,14.10
2019-05-29T08:23:18.156Z,14.09
2019-05-29T08:25:47.720Z,14.17
2019-05-29T08:28:17.374Z,14.28
2019-05-29T08:30:51.960Z,14.16
2019-05-29T08:33:17.814Z,14.07
2019-05-29T08:35:47.550Z,14.21
2019-05-29T08:38:17.954Z,14.28
2019-05-29T08:40:47.461Z,14.32
2019-05-29T08:43:16.755Z,14.25
2019-05-29T08:45:46.013Z,14.16
2019-05-29T08:48:15.333Z,14.34
2019-05-29T08:50:45.491Z,14.49
2019-05-29T08:53:15.274Z,14.83
2019-05-29T08:55:46.062Z,14.74
2019-05-29T08:58:15.618Z,14.91
2019-05-29T09:00:48.546Z,15.05
2019-05-29T09:03:16.055Z,14.87
2019-05-29T09:05:46.573Z,14.76
2019-05-29T09:08:16.275Z,14.59
2019-05-29T09:10:47.115Z,14.79
2019-05-29T09:13:17.565Z,15.07
2019-05-29T09:15:46.694Z,15.26
2019-05-29T09:18:17.046Z,15.33
2019-05-29T09:21:02.026Z,15.35
2019-05-29T09:23:18.879Z,15.45
2019-05-29T09:25:48.456Z,15.44
2019-05-29T09:28:18.347Z,15.79
2019-05-29T09:30:47.475Z,15.80
2019-05-29T09:33:18.747Z,15.73
2019-05-29T09:35:48.115Z,15.54
2019-05-29T09:38:18.675Z,15.64
2019-05-29T09:40:48.354Z,15.61
2019-05-29T09:43:18.682Z,15.60
2019-05-29T09:45:48.544Z,15.37
2019-05-29T09:48:20.195Z,15.36
2019-05-29T09:50:50.761Z,15.43
2019-05-29T09:53:20.378Z,15.70
2019-05-29T09:55:49.544Z,16.19
2019-05-29T09:58:18.977Z,16.18
2019-05-29T10:01:07.228Z,16.33
2019-05-29T10:03:19.416Z,16.26
2019-05-29T10:05:48.834Z,16.29
2019-05-29T10:08:18.336Z,16.70
2019-05-29T10:10:47.528Z,17.16
2019-05-29T10:13:16.872Z,17.21
2019-05-29T10:15:46.316Z,16.85
2019-05-29T10:18:31.461Z,16.90
2019-05-29T10:20:46.682Z,16.86
2019-05-29T10:23:16.075Z,16.66
2019-05-29T10:25:45.157Z,16.46
2019-05-29T10:28:14.456Z,16.91
2019-05-29T10:30:44.426Z,17.05
2019-05-29T10:33:14.894Z,16.94
2019-05-29T10:35:44.755Z,16.69
2019-05-29T10:38:14.519Z,16.23
2019-05-29T10:40:50.127Z,16.85
2019-05-29T10:43:19.673Z,16.97
2019-05-29T10:45:48.021Z,17.12
2019-05-29T10:48:17.157Z,17.27
2019-05-29T10:50:49.907Z,17.65
2019-05-29T10:53:17.388Z,18.18
2019-05-29T10:55:46.795Z,18.90
2019-05-29T10:58:15.974Z,19.20
2019-05-29T11:00:45.910Z,19.07
2019-05-29T11:03:16.219Z,19.50
2019-05-29T11:05:45.651Z,19.75
2019-05-29T11:08:14.912Z,19.30
2019-05-29T11:10:44.315Z,19.22
2019-05-29T11:13:13.495Z,18.89
2019-05-29T11:15:42.915Z,19.25
2019-05-29T11:18:12.333Z,19.52
2019-05-29T11:20:41.517Z,19.52
2019-05-29T11:23:11.035Z,19.50
2019-05-29T11:25:40.212Z,19.33
2019-05-29T11:28:09.614Z,19.11
2019-05-29T11:30:38.815Z,19.17
2019-05-29T11:33:08.321Z,19.34
2019-05-29T11:35:38.132Z,19.63
2019-05-29T11:38:07.435Z,20.01
2019-05-29T11:40:37.001Z,20.53
2019-05-29T11:43:06.558Z,20.43
2019-05-29T11:45:36.135Z,19.68
2019-05-29T11:48:05.968Z,19.10
2019-05-29T11:50:35.156Z,18.80
2019-05-29T11:53:04.554Z,18.47
2019-05-29T11:55:33.754Z,18.58
2019-05-29T11:58:02.955Z,19.06
2019-05-29T12:00:32.554Z,19.37
2019-05-29T12:03:01.870Z,19.72
2019-05-29T12:05:31.054Z,19.53
2019-05-29T12:08:01.868Z,19.25
2019-05-29T12:10:31.495Z,18.97
2019-05-29T12:13:01.741Z,18.95
2019-05-29T12:15:30.913Z,18.67
2019-05-29T12:18:22.232Z,18.60
2019-05-29T12:20:31.255Z,19.00
2019-05-29T12:23:24.129Z,19.14
2019-05-29T12:25:32.106Z,19.23
2019-05-29T12:28:01.483Z,19.53
2019-05-29T12:30:31.500Z,19.52
2019-05-29T12:33:01.167Z,19.63
2019-05-29T12:35:30.834Z,19.82
2019-05-29T12:38:01.382Z,19.47
2019-05-29T12:40:31.065Z,19.10
2019-05-29T12:43:01.934Z,18.84
2019-05-29T12:45:31.515Z,18.78
2019-05-29T12:48:09.911Z,19.06
2019-05-29T12:50:34.586Z,19.27
2019-05-29T12:53:03.929Z,19.40
2019-05-29T12:55:33.333Z,19.59
2019-05-29T12:58:04.315Z,19.76
2019-05-29T13:00:33.656Z,20.08
2019-05-29T13:03:03.773Z,19.59
2019-05-29T13:05:34.414Z,19.68
2019-05-29T13:08:05.146Z,19.81
2019-05-29T13:10:34.946Z,20.62
2019-05-29T13:13:10.115Z,21.55
2019-05-29T13:15:35.593Z,21.70
2019-05-29T13:18:09.246Z,21.78
2019-05-29T13:20:35.930Z,21.71
2019-05-29T13:23:07.349Z,21.81
2019-05-29T13:25:38.020Z,21.73
2019-05-29T13:28:08.340Z,21.78
2019-05-29T13:30:40.514Z,21.11
2019-05-29T13:33:10.547Z,20.79
2019-05-29T13:35:40.199Z,20.80
2019-05-29T13:38:09.637Z,21.25
2019-05-29T13:40:39.027Z,21.59
2019-05-29T13:43:14.882Z,22.01
2019-05-29T13:45:39.995Z,22.51
2019-05-29T13:48:09.189Z,22.43
2019-05-29T13:50:38.894Z,22.06
2019-05-29T13:53:08.513Z,21.83
2019-05-29T13:55:37.733Z,21.96
2019-05-29T13:58:07.818Z,21.80
2019-05-29T14:00:37.831Z,21.85
2019-05-29T14:03:09.208Z,22.49
2019-05-29T14:05:39.615Z,22.70
2019-05-29T14:08:09.189Z,22.74
2019-05-29T14:10:38.994Z,23.20
2019-05-29T14:13:09.338Z,23.46
2019-05-29T14:15:38.853Z,23.59
2019-05-29T14:18:08.995Z,23.65
2019-05-29T14:20:38.367Z,23.34
2019-05-29T14:23:07.672Z,22.91
2019-05-29T14:25:37.844Z,22.65
2019-05-29T14:28:08.676Z,22.55
2019-05-29T14:30:38.237Z,22.54
2019-05-29T14:33:12.585Z,22.20
2019-05-29T14:35:38.834Z,21.84
2019-05-29T14:38:11.598Z,22.07
2019-05-29T14:40:39.122Z,22.52
2019-05-29T14:43:11.720Z,22.31
2019-05-29T14:45:39.353Z,22.04
2019-05-29T14:48:10.110Z,22.00
2019-05-29T14:50:39.595Z,21.82
2019-05-29T14:53:09.412Z,22.15
2019-05-29T14:55:42.097Z,22.25
2019-05-29T14:58:11.929Z,21.96
2019-05-29T15:00:41.389Z,21.86
2019-05-29T15:03:11.494Z,22.27
2019-05-29T15:05:41.121Z,22.28
2019-05-29T15:08:12.356Z,22.33
2019-05-29T15:10:41.772Z,22.27
2019-05-29T15:13:13.101Z,22.16
2019-05-29T15:15:42.014Z,21.83
2019-05-29T15:18:16.349Z,21.32
2019-05-29T15:20:42.253Z,21.31
2019-05-29T15:23:11.578Z,21.21
2019-05-29T15:25:40.954Z,21.12
2019-05-29T15:28:13.623Z,21.07
2019-05-29T15:30:41.175Z,21.11
2019-05-29T15:33:10.882Z,20.97
2019-05-29T15:35:40.813Z,21.17
2019-05-29T15:38:10.784Z,21.22
2019-05-29T15:40:40.215Z,21.26
2019-05-29T15:43:10.750Z,21.53
2019-05-29T15:45:40.345Z,21.68
2019-05-29T15:48:11.026Z,22.09
2019-05-29T15:50:40.434Z,22.23
2019-05-29T15:53:11.023Z,21.63
2019-05-29T15:55:40.304Z,20.72
2019-05-29T15:58:11.116Z,20.81
2019-05-29T16:00:40.341Z,20.65
2019-05-29T16:03:09.765Z,20.71
2019-05-29T16:05:39.154Z,20.91
2019-05-29T16:08:09.824Z,20.93
2019-05-29T16:10:39.596Z,20.63
2019-05-29T16:13:08.899Z,20.29
2019-05-29T16:15:38.194Z,19.89
2019-05-29T16:18:18.983Z,19.56
2019-05-29T16:20:38.734Z,19.27
2019-05-29T16:23:08.135Z,19.30
2019-05-29T16:25:40.491Z,19.35
2019-05-29T16:28:08.582Z,19.46
2019-05-29T16:30:37.874Z,19.46
2019-05-29T16:33:07.312Z,19.58
2019-05-29T16:35:37.702Z,19.66
2019-05-29T16:38:07.315Z,19.62
2019-05-29T16:40:36.604Z,19.58
2019-05-29T16:43:05.922Z,19.52
2019-05-29T16:45:35.415Z,19.55
2019-05-29T16:48:04.825Z,19.44
2019-05-29T16:50:34.334Z,19.43
2019-05-29T16:53:03.842Z,19.47
2019-05-29T16:55:33.002Z,19.28
2019-05-29T16:58:02.511Z,19.03
2019-05-29T17:00:31.834Z,18.91
2019-05-29T17:03:01.235Z,18.97
2019-05-29T17:05:31.250Z,18.98
2019-05-29T17:08:00.779Z,19.00
2019-05-29T17:10:37.229Z,19.00
2019-05-29T17:13:07.630Z,19.10
2019-05-29T17:15:37.254Z,19.07
2019-05-29T17:18:06.755Z,19.03
2019-05-29T17:20:41.377Z,18.96
2019-05-29T17:23:10.779Z,18.92
2019-05-29T17:25:40.292Z,18.72
2019-05-29T17:28:10.096Z,18.64
2019-05-29T17:30:39.394Z,18.51
2019-05-29T17:33:08.992Z,18.32
2019-05-29T17:35:38.618Z,18.21
2019-05-29T17:38:08.217Z,18.17
2019-05-29T17:40:37.511Z,18.20
2019-05-29T17:43:06.917Z,18.18
2019-05-29T17:45:36.715Z,18.05
2019-05-29T17:48:06.334Z,17.90
2019-05-29T17:50:35.713Z,17.77
2019-05-29T17:53:05.211Z,17.51
2019-05-29T17:55:35.142Z,17.25
2019-05-29T17:58:04.449Z,17.16
2019-05-29T18:00:33.950Z,16.99
2019-05-29T18:03:03.362Z,16.87
2019-05-29T18:05:32.634Z,16.77
2019-05-29T18:08:02.274Z,16.69
2019-05-29T18:10:31.763Z,16.62
2019-05-29T18:13:01.273Z,16.53
2019-05-29T18:15:30.555Z,16.42
2019-05-29T18:17:59.958Z,16.34
2019-05-29T18:20:29.264Z,16.38
2019-05-29T18:22:58.876Z,16.25
2019-05-29T18:25:28.397Z,16.11
2019-05-29T18:27:57.993Z,16.08
2019-05-29T18:30:28.797Z,15.99
2019-05-29T18:32:58.159Z,15.93
2019-05-29T18:35:28.981Z,15.76
2019-05-29T18:37:58.678Z,15.66
2019-05-29T18:40:28.490Z,15.61
2019-05-29T18:42:58.494Z,15.45
2019-05-29T18:45:28.415Z,15.35
2019-05-29T18:47:58.789Z,15.27
2019-05-29T18:50:28.145Z,15.28
2019-05-29T18:52:57.734Z,15.25
2019-05-29T18:55:27.354Z,15.15
2019-05-29T18:57:56.714Z,15.08
2019-05-29T19:00:27.512Z,14.96
2019-05-29T19:02:57.094Z,14.88
2019-05-29T19:05:27.704Z,14.82
2019-05-29T19:07:57.425Z,14.76
2019-05-29T19:10:27.725Z,14.73
2019-05-29T19:12:57.356Z,14.57
2019-05-29T19:15:27.799Z,14.49
2019-05-29T19:17:57.494Z,14.35
2019-05-29T19:20:26.802Z,14.36
2019-05-29T19:22:56.198Z,14.42
2019-05-29T19:25:26.707Z,14.34
2019-05-29T19:27:56.142Z,14.26
2019-05-29T19:30:26.935Z,14.25
2019-05-29T19:32:56.534Z,14.24
2019-05-29T19:35:25.993Z,14.23
2019-05-29T19:37:55.538Z,14.09
2019-05-29T19:40:26.030Z,14.12
2019-05-29T19:42:55.820Z,14.07
2019-05-29T19:45:26.561Z,13.91
2019-05-29T19:47:56.362Z,13.83
2019-05-29T19:50:26.688Z,13.78
2019-05-29T19:52:56.454Z,13.80
2019-05-29T19:55:30.234Z,13.67
2019-05-29T19:57:57.341Z,13.52
2019-05-29T20:00:27.949Z,13.47
2019-05-29T20:02:57.782Z,13.47
2019-05-29T20:05:27.292Z,13.40
2019-05-29T20:07:57.095Z,13.32
2019-05-29T20:10:27.176Z,13.34
2019-05-29T20:12:56.612Z,13.28
2019-05-29T20:15:25.776Z,13.19
2019-05-29T20:17:55.214Z,13.10
2019-05-29T20:20:24.721Z,13.03
2019-05-29T20:22:54.537Z,13.01
2019-05-29T20:25:23.820Z,12.97
2019-05-29T20:28:05.495Z,12.98
2019-05-29T20:30:24.375Z,12.99
2019-05-29T20:32:53.563Z,12.84
2019-05-29T20:35:22.984Z,12.74
2019-05-29T20:37:52.369Z,12.66
2019-05-29T20:40:21.784Z,12.70
2019-05-29T20:42:51.375Z,12.68
2019-05-29T20:45:20.902Z,12.69
2019-05-29T20:47:50.383Z,12.66
2019-05-29T20:50:20.914Z,12.59
2019-05-29T20:52:50.323Z,12.45
2019-05-29T20:55:19.835Z,12.38
2019-05-29T20:57:49.110Z,12.38
2019-05-29T21:00:18.838Z,12.36
2019-05-29T21:02:48.127Z,12.35
2019-05-29T21:05:17.733Z,12.25
2019-05-29T21:07:47.135Z,12.18
2019-05-29T21:10:16.534Z,12.16
2019-05-29T21:12:47.600Z,12.15
2019-05-29T21:15:17.359Z,12.12
2019-05-29T21:17:46.793Z,12.09
2019-05-29T21:20:16.617Z,12.02
2019-05-29T21:22:45.792Z,11.93
2019-05-29T21:25:18.988Z,11.91
2019-05-29T21:27:49.312Z,11.89
2019-05-29T21:30:20.556Z,11.85
2019-05-29T21:32:49.779Z,11.87
2019-05-29T21:35:19.262Z,11.90
2019-05-29T21:37:48.572Z,11.90
2019-05-29T21:40:18.063Z,11.93
2019-05-29T21:42:47.377Z,11.92
2019-05-29T21:45:17.279Z,11.93
2019-05-29T21:47:47.313Z,11.88
2019-05-29T21:50:16.896Z,11.88
2019-05-29T21:52:46.102Z,11.82
2019-05-29T21:55:15.493Z,11.78
2019-05-29T21:57:47.154Z,11.70
2019-05-29T22:00:18.514Z,11.67
2019-05-29T22:02:48.563Z,11.65
2019-05-29T22:05:18.953Z,11.48
2019-05-29T22:07:48.977Z,11.35
2019-05-29T22:10:18.675Z,11.14
2019-05-29T22:12:47.873Z,10.98
2019-05-29T22:15:18.045Z,10.90
2019-05-29T22:17:47.494Z,10.94
2019-05-29T22:20:16.794Z,10.85
2019-05-29T22:22:46.162Z,10.72
2019-05-29T22:25:15.797Z,10.79
2019-05-29T22:27:44.892Z,10.70
2019-05-29T22:30:14.394Z,10.65
2019-05-29T22:32:43.694Z,10.70
2019-05-29T22:35:13.200Z,10.65
2019-05-29T22:37:42.696Z,10.61
2019-05-29T22:40:12.914Z,10.59
2019-05-29T22:42:42.322Z,10.56
2019-05-29T22:45:12.134Z,10.57
2019-05-29T22:47:41.536Z,10.47
2019-05-29T22:50:11.855Z,10.39
2019-05-29T22:52:41.374Z,10.47
2019-05-29T22:55:10.872Z,10.45
2019-05-29T22:57:40.233Z,10.40
2019-05-29T23:00:10.397Z,10.32
2019-05-29T23:02:39.595Z,10.24
2019-05-29T23:05:09.814Z,10.20
2019-05-29T23:07:39.154Z,10.12
2019-05-29T23:10:11.793Z,10.18
2019-05-29T23:12:41.394Z,10.14
2019-05-29T23:15:10.993Z,10.00
2019-05-29T23:17:40.297Z,9.92
2019-05-29T23:20:10.015Z,9.92
2019-05-29T23:22:39.295Z,9.92
2019-05-29T23:25:08.913Z,9.90
2019-05-29T23:27:38.105Z,9.85
2019-05-29T23:30:08.835Z,9.82
2019-05-29T23:32:38.236Z,9.82
2019-05-29T23:35:08.475Z,9.75
2019-05-29T23:37:38.074Z,9.70
2019-05-29T23:40:08.104Z,9.67
2019-05-29T23:42:37.274Z,9.67
2019-05-29T23:45:08.407Z,9.68
2019-05-29T23:47:37.722Z,9.57
2019-05-29T23:50:08.361Z,9.52
2019-05-29T23:52:37.755Z,9.56
2019-05-29T23:55:09.305Z,9.58
2019-05-29T23:57:38.854Z,9.56
